Nancy M — WDF3398 — position and weather

sailwx.info

Track history (hours):
 
Tides and Currents Weather Stations Pressure Air Temp Water Temp Dewpoint Dewpoint Depression Visibility Wind Speed Wind Dir Waves Ship Positions

Nancy M

Owner: MANSON CONSTRUCTION CO., SEATTLE, WA. More information available from US FCC via Universal Licensing System and Coast Guard Vessel Documentation Center.

Last reported at 2015-Jul-31 06:05 UTC. Time now 2015-Jul-31 11:19 UTC.
Position N 48°17' W 122°37'.

Length 24 m; draft 4 m.

Type: Tug. MMSI: 367439390.

Date/timePositionNaut miles runAvg speedWind from/ knotsBaromVisibWave heightAir tempDewpointWater temp
2015-Jul-31 06:05N 48°17' W 122°37'0 0.0
2015-Jul-31 04:11N 48°17' W 122°37'0 0.0
2015-Jul-30 22:11N 48°17' W 122°37'14 7.5
2015-Jul-30 20:23N 48°05' W 122°27'8 9.9
2015-Jul-30 19:33N 47°59' W 122°19'0 0.1
2015-Jul-30 18:33N 47°59' W 122°19'7 0.4
2015-Jul-30 01:19N 48°04' W 122°26'8 9.6
2015-Jul-30 00:32N 47°59' W 122°18'0 0.3
2015-Jul-29 23:33N 47°59' W 122°17'7 1.5
2015-Jul-29 18:33N 48°04' W 122°25'8 7.7
2015-Jul-29 17:33N 47°59' W 122°17'6 5.5
2015-Jul-29 16:33N 48°03' W 122°23'0 0.0
2015-Jul-29 04:31N 48°03' W 122°23'5 5.1
2015-Jul-29 03:32N 47°59' W 122°18'9 0.3
2015-Jul-27 23:17N 48°05' W 122°27'6 7.9
2015-Jul-27 22:33N 48°02' W 122°21'3 7.6
2015-Jul-27 22:12N 47°59' W 122°19'0 0.7
2015-Jul-27 21:33N 47°59' W 122°18'7 6.1
2015-Jul-27 20:25N 48°04' W 122°25'  
2015-Jul-25 15:04N 48°10' W 122°33'510.0
2015-Jul-25 14:31N 48°06' W 122°28'1010.1
2015-Jul-25 13:34N 47°59' W 122°17'5 4.8
2015-Jul-25 12:34N 48°02' W 122°22'4 0.4
2015-Jul-25 01:07N 48°05' W 122°27'610.6
2015-Jul-25 00:34N 48°01' W 122°21'2 1.5
2015-Jul-24 23:34N 47°60' W 122°20'12 9.0
2015-Jul-24 22:15N 48°08' W 122°32'3 1.2
2015-Jul-24 20:10N 48°11' W 122°33'610.1
2015-Jul-24 19:32N 48°05' W 122°27'9 9.7
2015-Jul-24 18:34N 47°59' W 122°17'2 1.7
2015-Jul-24 17:33N 47°59' W 122°19'21 4.3
2015-Jul-24 12:33N 48°17' W 122°37'0 0.0
2015-Jul-24 10:30N 48°17' W 122°37'0 0.0
2015-Jul-24 09:32N 48°17' W 122°37'0 0.0
2015-Jul-24 08:33N 48°17' W 122°37'0 0.0
2015-Jul-24 07:32N 48°17' W 122°37'0 0.0
2015-Jul-24 06:31N 48°17' W 122°37'11 3.1
2015-Jul-24 03:04N 48°07' W 122°31'510.0
2015-Jul-24 02:32N 48°04' W 122°25'7 7.6
2015-Jul-24 01:34N 47°59' W 122°17'4 3.8
2015-Jul-24 00:33N 48°01' W 122°21'10 9.4
2015-Jul-23 23:32N 48°08' W 122°31'4 0.2
2015-Jul-23 02:09N 48°05' W 122°27'4 7.5
2015-Jul-23 01:34N 48°02' W 122°22'4 4.3
2015-Jul-23 00:32N 47°59' W 122°17'9 2.2
2015-Jul-22 20:20N 48°05' W 122°27'810.3
2015-Jul-22 19:33N 47°60' W 122°19'3 3.0
2015-Jul-22 18:33N 48°02' W 122°22'5 0.3
2015-Jul-22 00:29N 48°05' W 122°27'9 9.8
2015-Jul-21 23:33N 47°59' W 122°17'  
Track history (hours):
 
Tides and Currents Weather Stations Pressure Air Temp Water Temp Dewpoint Dewpoint Depression Visibility Wind Speed Wind Dir Waves Ship Positions

Nancy M

Owner: MANSON CONSTRUCTION CO., SEATTLE, WA. More information available from US FCC via Universal Licensing System and Coast Guard Vessel Documentation Center.

Last reported at 2015-Jul-31 06:05 UTC. Time now 2015-Jul-31 11:19 UTC.
Position N 48°17' W 122°37'.

Length 24 m; draft 4 m.

Type: Tug. MMSI: 367439390.

Date/timePositionNaut miles runAvg speedWind from/ knotsBaromVisibWave heightAir tempDewpointWater temp
2015-Jul-31 06:05N 48°17' W 122°37'0 0.0
2015-Jul-31 04:11N 48°17' W 122°37'0 0.0
2015-Jul-30 22:11N 48°17' W 122°37'14 7.5
2015-Jul-30 20:23N 48°05' W 122°27'8 9.9
2015-Jul-30 19:33N 47°59' W 122°19'0 0.1
2015-Jul-30 18:33N 47°59' W 122°19'7 0.4
2015-Jul-30 01:19N 48°04' W 122°26'8 9.6
2015-Jul-30 00:32N 47°59' W 122°18'0 0.3
2015-Jul-29 23:33N 47°59' W 122°17'7 1.5
2015-Jul-29 18:33N 48°04' W 122°25'8 7.7
2015-Jul-29 17:33N 47°59' W 122°17'6 5.5
2015-Jul-29 16:33N 48°03' W 122°23'0 0.0
2015-Jul-29 04:31N 48°03' W 122°23'5 5.1
2015-Jul-29 03:32N 47°59' W 122°18'9 0.3
2015-Jul-27 23:17N 48°05' W 122°27'6 7.9
2015-Jul-27 22:33N 48°02' W 122°21'3 7.6
2015-Jul-27 22:12N 47°59' W 122°19'0 0.7
2015-Jul-27 21:33N 47°59' W 122°18'7 6.1
2015-Jul-27 20:25N 48°04' W 122°25'  
2015-Jul-25 15:04N 48°10' W 122°33'510.0
2015-Jul-25 14:31N 48°06' W 122°28'1010.1
2015-Jul-25 13:34N 47°59' W 122°17'5 4.8
2015-Jul-25 12:34N 48°02' W 122°22'4 0.4
2015-Jul-25 01:07N 48°05' W 122°27'610.6
2015-Jul-25 00:34N 48°01' W 122°21'2 1.5
2015-Jul-24 23:34N 47°60' W 122°20'12 9.0
2015-Jul-24 22:15N 48°08' W 122°32'3 1.2
2015-Jul-24 20:10N 48°11' W 122°33'610.1
2015-Jul-24 19:32N 48°05' W 122°27'9 9.7
2015-Jul-24 18:34N 47°59' W 122°17'2 1.7
2015-Jul-24 17:33N 47°59' W 122°19'21 4.3
2015-Jul-24 12:33N 48°17' W 122°37'0 0.0
2015-Jul-24 10:30N 48°17' W 122°37'0 0.0
2015-Jul-24 09:32N 48°17' W 122°37'0 0.0
2015-Jul-24 08:33N 48°17' W 122°37'0 0.0
2015-Jul-24 07:32N 48°17' W 122°37'0 0.0
2015-Jul-24 06:31N 48°17' W 122°37'11 3.1
2015-Jul-24 03:04N 48°07' W 122°31'510.0
2015-Jul-24 02:32N 48°04' W 122°25'7 7.6
2015-Jul-24 01:34N 47°59' W 122°17'4 3.8
2015-Jul-24 00:33N 48°01' W 122°21'10 9.4
2015-Jul-23 23:32N 48°08' W 122°31'4 0.2
2015-Jul-23 02:09N 48°05' W 122°27'4 7.5
2015-Jul-23 01:34N 48°02' W 122°22'4 4.3
2015-Jul-23 00:32N 47°59' W 122°17'9 2.2
2015-Jul-22 20:20N 48°05' W 122°27'810.3
2015-Jul-22 19:33N 47°60' W 122°19'3 3.0
2015-Jul-22 18:33N 48°02' W 122°22'5 0.3
2015-Jul-22 00:29N 48°05' W 122°27'9 9.8
2015-Jul-21 23:33N 47°59' W 122°17'  

Dump ship's entire track history